White Mountain Summit Weather observations

Data are for 10 minute period ending at time listed.
 Day   Time   Solar   Ave.   Ave.  Ave.  Vector    Max.    Baro.  
  of    of     Rad.   Air    Rel.  Wind   Wind     Wind   Press.  
Year   Day            Temp.  Hum.  Speed  Dir.     Gust           
2014   (PST)   W/m2    F      %     mph   deg.      mph     mb.   
-------------------------------------------------------------------
 271   21:20    0.0    17   90.8     0      0.0     0.0   999.0 
 271   21:30    0.0    17   90.5     0      0.0     0.0   999.0 
 271   21:40    0.0    16   90.4     0      0.0     0.0   999.0 
 271   21:50    0.0    16   90.4     0      0.0     0.0   999.0 
 271   22:00    0.0    17   90.7     0      0.0     0.0   999.0 
 271   22:10    0.0    17   90.7     0      0.0     0.0   999.0 
 271   22:20    0.0    17   90.5     0      0.0     0.0   999.0 
 271   22:30    0.0    17   90.3     0      0.0     0.0   999.0 
 271   22:40    0.0    17   90.2     0      0.0     0.0   999.0 
 271   22:50    0.0    17   90.3     0      0.0     0.0   999.0 
 271   23:00    0.0    17   90.5     0      0.0     0.0   999.0 
 271   23:10    0.0    16   90.3     0      0.0     0.0   999.0 
 271   23:20    0.0    16   90.3     0      0.0     0.0   999.0 
 271   23:30    0.0    16   90.0     0      0.0     0.0   999.0 
 271   23:40    0.0    16   89.8     0      0.0     0.0   999.0 
 271   23:50    0.0    16   89.5     0      0.0     0.0   999.0 
 272    0:00    0.0    16   89.4     0      0.0     0.0   999.0 
 272    0:10    0.0    16   89.9     0      0.0     0.0   999.0 
 272    0:20    0.0    16   90.0     0      0.0     0.0   999.0 
 272    0:30    0.0    16   89.8     0      0.0     0.0   999.0 
 272    0:40    0.0    16   89.8     0      0.0     0.0   999.0 
 272    0:50    0.0    16   89.8     0      0.0     0.0   999.0 
 272    1:00    0.0    16   89.7     0      0.0     0.0   999.0 
 272    1:10    0.0    16   89.8     0      0.0     0.0   999.0 
 272    1:20    0.0    16   89.7     0      0.0     0.0   999.0 
 272    1:30    0.0    16   89.5     0      0.0     0.0   999.0 
 272    1:40    0.0    16   89.3     0      0.0     0.0   999.0 
 272    1:50    0.0    16   89.5     0      0.0     0.0   999.0 
 272    2:00    0.0    16   89.0     0      0.0     0.0   999.0 
 272    2:10    0.0    16   88.8     0      0.0     0.0   999.0 
 272    2:20    0.0    16   89.4     0      0.0     0.0   999.0 
 272    2:30    0.0    16   89.6     0      0.0     0.0   999.0 
 272    2:40    0.0    16   89.0     0      0.0     0.0   999.0 
 272    2:50    0.0    16   88.2     0      0.0     0.0   999.0 
 272    3:00    0.0    16   88.7     0      0.0     0.0   999.0 
 272    3:10    0.0    16   88.9     0      0.0     0.0   999.0 
 272    3:20    0.0    16   89.2     0      0.0     0.0   999.0 
 272    3:30    0.0    15   88.8     0      0.0     0.0   999.0 
 272    3:40    0.0    15   88.3     0      0.0     0.0   999.0 
 272    3:50    0.0    15   88.5     0      0.0     0.0   999.0 
 272    4:00    0.0    15   88.5     0      0.0     0.0   999.0 
 272    4:10    0.0    15   88.3     0      0.0     0.0   999.0 
 272    4:20    0.0    15   88.4     0      0.0     0.0   999.0 
 272    4:30    0.0    15   88.5     0      0.0     0.0   999.0 
 272    4:40    0.0    15   86.5     0      0.0     0.0   999.0 
 272    4:50    0.0    15   85.2     0      0.0     0.0   999.0 
 272    5:00    0.0    15   85.7     0      0.0     0.0   999.0 
 272    5:10    0.0    15   85.6     0      0.0     0.0   999.0 
 272    5:20    0.0    15   84.9     0      0.0     0.0   999.0 
 272    5:30    0.0    16   84.0     0      0.0     0.0   999.0 
 272    5:40    0.0    16   82.9     0      0.0     0.0   999.0 
 272    5:50    0.0    16   82.3     0      0.0     0.0   999.0 
 272    6:00    0.0    17   82.2     0      0.0     0.0   999.0 
 272    6:10    0.0    17   81.7     0      0.0     0.0   999.0 
 272    6:20    0.0    17   81.7     0      0.0     0.0   999.0 
 272    6:30    0.0    17   81.2     0      0.0     0.0   999.0 
 272    6:40    0.0    17   80.7     0      0.0     0.0   999.0 
 272    6:50    0.0    17   80.2     0      0.0     0.0   999.0 
 272    7:00    0.0    18   80.6     0      0.0     0.0   999.0 
 272    7:10    0.0    18   79.9     0      0.0     0.0   999.0 
 272    7:20    0.0    19   79.3     0      0.0     0.0   999.0 
 272    7:30    0.0    19   78.8     0      0.0     0.0   999.0 
 272    7:40    0.0    19   78.5     0      0.0     0.0   999.0 
 272    7:50    0.0    20   78.8     0      0.0     0.0   999.0 
 272    8:00    0.0    20   78.9     0      0.0     0.0   999.0 
 272    8:10    0.0    21   79.0     0      0.0     0.0   999.0 
 272    8:20    0.0    22   79.2     0      0.0     0.0   999.0 
 272    8:30    0.0    22   81.3     0    251.7     2.4   999.0 
 272    8:40    0.0    23   79.8     1    251.7     7.1   999.0 
 272    8:50    0.0    23   79.8     1    251.7     4.7   999.0 
 272    9:00    0.0    23   77.8     0    253.4     2.4   999.0 
 272    9:10    0.0    23   78.3     0    253.4     4.7   999.0 
 272    9:20    0.0    23   77.8     0    253.9     4.7   999.0 
 272    9:30    0.0    23   77.1     0    258.5     4.7   999.0 
 272    9:40    0.0    24   80.1     2    259.1     7.1   999.0 
 272    9:50    0.0    24   80.4     1    260.6     4.7   999.0 
 272   10:00    0.0    25   80.6     4    281.8    11.8   999.0 
 272   10:10    0.0    25   80.1     9    283.3    11.8   999.0 
 272   10:20    0.0    25   80.9     8    281.7    14.1   999.0 
 272   10:30    0.0    26   80.7    27    293.4    40.0   999.0 
 272   10:40    0.0    26   79.2    28    280.4    37.7   999.0 
 272   10:50    0.0    26   79.0    28    281.2    42.4   999.0 
 272   11:00    0.0    26   80.0    33    278.9    47.1   999.0 
 272   11:10    0.0    26   79.3    29    284.1    40.0   999.0 
 272   11:20    0.0    27   79.8    28    275.2    37.7   999.0 
 272   11:30    0.0    27   78.5    33    277.9    42.4   999.0 
 272   11:40    0.0    26   77.5    35    282.8    42.4   999.0 
 272   11:50    0.0    26   76.2    36    286.8    44.7   999.0 
 272   12:00    0.0    26   75.3    39    282.4    47.1   999.0 
 272   12:10    0.0    26   76.0    42    282.3    54.1   999.0 
 272   12:20    0.0    26   74.5    41    286.0    51.8   999.0 
 272   12:30    0.0    26   74.4    45    286.1    63.5   999.0 
 272   12:40    0.0    26   73.3    38    282.5    54.1   999.0 
 272   12:50    0.0    26   72.8    37    279.4    51.8   999.0 
 272   13:00    0.0    27   72.0    37    277.9    54.1   999.0 
 272   13:10    0.0    27   70.1    35    279.1    56.5   999.0 
 272   13:20    0.0    28   69.6    31    279.0    42.4   999.0 
 272   13:30    0.0    28   62.2    35    282.7    68.2   999.0 
 272   13:40    0.0    29   63.2    29    281.4    44.7   999.0 
 272   13:50    0.0    29   63.8    25    279.1    42.4   999.0 
 272   14:00    0.0    30   62.2    24    284.4    33.0   999.0 
 272   14:10    0.0    30   57.6    27    290.1    40.0   999.0 
 272   14:20    0.0    30   58.4    29    287.9    42.4   999.0 
 272   14:30    0.0    30   57.8    30    281.3    40.0   999.0 
 272   14:40    0.0    30   56.6    29    282.2    40.0   999.0 
 272   14:50    0.0    31   54.2    31    280.5    42.4   999.0 
 272   15:00    0.0    31   56.7    30    277.4    44.7   999.0 
 272   15:10    0.0    31   59.7    30    275.7    42.4   999.0 
 272   15:20    0.0    31   68.4    25    267.5    30.6   999.0 
 272   15:30    0.0    31   72.9    22    272.9    28.2   999.0 
 272   15:40    0.0    31   73.1    23    271.6    28.2   999.0 
 272   15:50    0.0    30   73.7    22    273.9    28.2   999.0 
 272   16:00    0.0    30   72.8    25    272.3    35.3   999.0 
 272   16:10    0.0    30   68.0    22    277.8    28.2   999.0 
 272   16:20    0.0    30   70.5    25    272.7    33.0   999.0 
 272   16:30    0.0    30   69.6    20    276.8    30.6   999.0 
 272   16:40    0.0    30   65.1    21    281.4    28.2   999.0 
 272   16:50    0.0    29   60.2    22    286.4    28.2   999.0 
 272   17:00    0.0    29   63.8    18    278.9    25.9   999.0 
 272   17:10    0.0    29   59.7    22    287.8    40.0   999.0 
 272   17:20    0.0    29   60.5    23    287.9    30.6   999.0 
 272   17:30    0.0    28   63.1    23    282.8    30.6   999.0 
 272   17:40    0.0    28   64.6    22    283.5    33.0   999.0 
 272   17:50    0.0    27   60.3    29    289.0    37.7   999.0 
 272   18:00    0.0    27   56.2    31    284.2    37.7   999.0 
 272   18:10    0.0    27   54.2    31    274.8    35.3   999.0 
 272   18:20    0.0    26   54.4    34    282.1    42.4   999.0 
 272   18:30    0.0    27   52.0    29    280.0    40.0   999.0 
 272   18:40    0.0    27   49.2    26    288.3    40.0   999.0 
 272   18:50    0.0    27   41.7    31    288.4    42.4   999.0 
 272   19:00    0.0    27   41.1    34    289.6    51.8   999.0 
 272   19:10    0.0    28   37.0    36    293.3    47.1   999.0 
 272   19:20    0.0    28   36.9    32    288.7    42.4   999.0 
 272   19:30    0.0    28   34.9    36    284.6    47.1   999.0 
 272   19:40    0.0    27   37.8    33    286.2    54.1   999.0 
 272   19:50    0.0    27   40.3    32    277.2    49.4   999.0 
 272   20:00    0.0    27   40.4    32    282.9    47.1   999.0 
 272   20:10    0.0    27   40.6    34    288.1    49.4   999.0 
 272   20:20    0.0    27   42.3    35    277.0    58.8   999.0 
 272   20:30    0.0    27   45.6    34    283.9    65.9   999.0 
 272   20:40    0.0    27   47.7    35    284.9    51.8   999.0 
 272   20:50    0.0    27   49.6    36    283.3    47.1   999.0 
 272   21:00    0.0    28   43.2    37    282.1    54.1   999.0 
 272   21:10    0.0    28   36.3    36    284.6    49.4   999.0 

Return to White Mountain graphs page.


Western Regional Climate Center,wrcc@dri.edu